sensor_id;sensor_type;location;lat;lon;timestamp;temperature;humidity
4635;DHT22;2330;48.158;11.816;2023-01-24T00:01:31;0.20;98.50
4635;DHT22;2330;48.158;11.816;2023-01-24T00:03:57;0.20;98.50
4635;DHT22;2330;48.158;11.816;2023-01-24T00:06:24;0.20;98.50
4635;DHT22;2330;48.158;11.816;2023-01-24T00:08:52;0.20;98.50
4635;DHT22;2330;48.158;11.816;2023-01-24T00:11:19;0.20;98.50
4635;DHT22;2330;48.158;11.816;2023-01-24T00:13:45;0.20;98.50
4635;DHT22;2330;48.158;11.816;2023-01-24T00:18:41;0.20;98.50
4635;DHT22;2330;48.158;11.816;2023-01-24T00:21:10;0.20;98.50
4635;DHT22;2330;48.158;11.816;2023-01-24T00:23:43;0.20;98.50
4635;DHT22;2330;48.158;11.816;2023-01-24T00:26:11;0.20;98.50
4635;DHT22;2330;48.158;11.816;2023-01-24T00:28:38;0.20;98.50
4635;DHT22;2330;48.158;11.816;2023-01-24T00:31:05;0.20;98.50
4635;DHT22;2330;48.158;11.816;2023-01-24T00:33:33;0.20;98.50
4635;DHT22;2330;48.158;11.816;2023-01-24T00:36:00;0.20;98.50
4635;DHT22;2330;48.158;11.816;2023-01-24T00:38:28;0.20;98.50
4635;DHT22;2330;48.158;11.816;2023-01-24T00:40:55;0.20;98.50
4635;DHT22;2330;48.158;11.816;2023-01-24T00:43:22;0.20;98.50
4635;DHT22;2330;48.158;11.816;2023-01-24T00:45:49;0.20;98.50
4635;DHT22;2330;48.158;11.816;2023-01-24T00:48:16;0.20;98.50
4635;DHT22;2330;48.158;11.816;2023-01-24T00:50:43;0.20;98.50
4635;DHT22;2330;48.158;11.816;2023-01-24T00:53:10;0.20;98.50
4635;DHT22;2330;48.158;11.816;2023-01-24T00:55:43;0.20;98.50
4635;DHT22;2330;48.158;11.816;2023-01-24T00:58:11;0.20;98.50
4635;DHT22;2330;48.158;11.816;2023-01-24T01:00:38;0.20;98.50
4635;DHT22;2330;48.158;11.816;2023-01-24T01:03:06;0.20;98.50
4635;DHT22;2330;48.158;11.816;2023-01-24T01:05:33;0.20;98.50
4635;DHT22;2330;48.158;11.816;2023-01-24T01:08:00;0.20;98.50
4635;DHT22;2330;48.158;11.816;2023-01-24T01:10:27;0.20;98.50
4635;DHT22;2330;48.158;11.816;2023-01-24T01:12:54;0.30;98.50
4635;DHT22;2330;48.158;11.816;2023-01-24T01:15:20;0.20;98.50
4635;DHT22;2330;48.158;11.816;2023-01-24T01:17:48;0.30;98.50
4635;DHT22;2330;48.158;11.816;2023-01-24T01:20:15;0.30;98.50
4635;DHT22;2330;48.158;11.816;2023-01-24T01:22:41;0.30;98.50
4635;DHT22;2330;48.158;11.816;2023-01-24T01:25:08;0.30;98.50
4635;DHT22;2330;48.158;11.816;2023-01-24T01:27:35;0.20;98.50
4635;DHT22;2330;48.158;11.816;2023-01-24T01:30:02;0.30;98.50
4635;DHT22;2330;48.158;11.816;2023-01-24T01:32:29;0.30;98.50
4635;DHT22;2330;48.158;11.816;2023-01-24T01:34:56;0.30;98.50
4635;DHT22;2330;48.158;11.816;2023-01-24T01:37:23;0.30;98.50
4635;DHT22;2330;48.158;11.816;2023-01-24T01:39:50;0.30;98.50
4635;DHT22;2330;48.158;11.816;2023-01-24T01:42:17;0.30;98.50
4635;DHT22;2330;48.158;11.816;2023-01-24T01:44:46;0.30;98.50
4635;DHT22;2330;48.158;11.816;2023-01-24T01:47:22;0.30;98.50
4635;DHT22;2330;48.158;11.816;2023-01-24T01:52:24;0.30;98.50
4635;DHT22;2330;48.158;11.816;2023-01-24T01:54:57;0.30;98.50
4635;DHT22;2330;48.158;11.816;2023-01-24T01:57:27;0.30;98.50
4635;DHT22;2330;48.158;11.816;2023-01-24T02:00:06;0.30;98.50
4635;DHT22;2330;48.158;11.816;2023-01-24T02:02:35;0.30;98.50
4635;DHT22;2330;48.158;11.816;2023-01-24T02:05:06;0.30;98.50
4635;DHT22;2330;48.158;11.816;2023-01-24T02:07:48;0.30;98.50
4635;DHT22;2330;48.158;11.816;2023-01-24T02:10:18;0.30;98.50
4635;DHT22;2330;48.158;11.816;2023-01-24T02:12:47;0.30;98.50
4635;DHT22;2330;48.158;11.816;2023-01-24T02:15:18;0.30;98.50
4635;DHT22;2330;48.158;11.816;2023-01-24T02:18:05;0.30;98.50
4635;DHT22;2330;48.158;11.816;2023-01-24T02:20:42;0.30;98.50
4635;DHT22;2330;48.158;11.816;2023-01-24T02:23:34;0.30;98.50
4635;DHT22;2330;48.158;11.816;2023-01-24T02:26:17;0.30;98.50
4635;DHT22;2330;48.158;11.816;2023-01-24T02:28:50;0.30;98.50
4635;DHT22;2330;48.158;11.816;2023-01-24T02:31:17;0.30;98.50
4635;DHT22;2330;48.158;11.816;2023-01-24T02:33:44;0.30;98.50
4635;DHT22;2330;48.158;11.816;2023-01-24T02:42:05;0.30;98.50
4635;DHT22;2330;48.158;11.816;2023-01-24T02:44:40;0.30;98.50
4635;DHT22;2330;48.158;11.816;2023-01-24T02:47:09;0.30;98.50
4635;DHT22;2330;48.158;11.816;2023-01-24T02:49:36;0.40;98.50
4635;DHT22;2330;48.158;11.816;2023-01-24T02:52:03;0.40;98.50
4635;DHT22;2330;48.158;11.816;2023-01-24T02:54:48;0.40;98.50
4635;DHT22;2330;48.158;11.816;2023-01-24T02:57:15;0.40;98.50
4635;DHT22;2330;48.158;11.816;2023-01-24T03:00:00;0.40;98.50
4635;DHT22;2330;48.158;11.816;2023-01-24T03:02:27;0.40;98.50
4635;DHT22;2330;48.158;11.816;2023-01-24T03:04:54;0.40;98.50
4635;DHT22;2330;48.158;11.816;2023-01-24T03:07:20;0.40;98.50
4635;DHT22;2330;48.158;11.816;2023-01-24T03:09:47;0.40;98.50
4635;DHT22;2330;48.158;11.816;2023-01-24T03:12:14;0.40;98.50
4635;DHT22;2330;48.158;11.816;2023-01-24T03:14:59;0.40;98.50
4635;DHT22;2330;48.158;11.816;2023-01-24T03:17:45;0.40;98.50
4635;DHT22;2330;48.158;11.816;2023-01-24T03:20:31;0.40;98.50
4635;DHT22;2330;48.158;11.816;2023-01-24T03:23:16;0.40;98.50
4635;DHT22;2330;48.158;11.816;2023-01-24T03:26:02;0.40;98.50
4635;DHT22;2330;48.158;11.816;2023-01-24T03:28:47;0.40;98.50
4635;DHT22;2330;48.158;11.816;2023-01-24T03:31:32;0.40;98.50
4635;DHT22;2330;48.158;11.816;2023-01-24T03:34:18;0.40;98.50
4635;DHT22;2330;48.158;11.816;2023-01-24T03:37:00;0.40;98.50
4635;DHT22;2330;48.158;11.816;2023-01-24T03:39:27;0.40;98.50
4635;DHT22;2330;48.158;11.816;2023-01-24T03:42:13;0.40;98.50
4635;DHT22;2330;48.158;11.816;2023-01-24T03:44:39;0.40;98.50
4635;DHT22;2330;48.158;11.816;2023-01-24T03:47:06;0.40;98.50
4635;DHT22;2330;48.158;11.816;2023-01-24T03:49:33;0.30;98.50
4635;DHT22;2330;48.158;11.816;2023-01-24T03:52:18;0.30;98.50
4635;DHT22;2330;48.158;11.816;2023-01-24T03:54:53;0.30;98.50
4635;DHT22;2330;48.158;11.816;2023-01-24T03:57:20;0.30;98.50
4635;DHT22;2330;48.158;11.816;2023-01-24T03:59:47;0.30;98.50
4635;DHT22;2330;48.158;11.816;2023-01-24T04:02:14;0.30;98.50
4635;DHT22;2330;48.158;11.816;2023-01-24T04:04:41;0.30;98.50
4635;DHT22;2330;48.158;11.816;2023-01-24T04:07:34;0.30;98.50
4635;DHT22;2330;48.158;11.816;2023-01-24T04:10:01;0.30;98.50
4635;DHT22;2330;48.158;11.816;2023-01-24T04:12:28;0.30;98.50
4635;DHT22;2330;48.158;11.816;2023-01-24T04:14:55;0.30;98.50
4635;DHT22;2330;48.158;11.816;2023-01-24T04:17:22;0.30;98.50
4635;DHT22;2330;48.158;11.816;2023-01-24T04:19:49;0.30;98.50
4635;DHT22;2330;48.158;11.816;2023-01-24T04:22:16;0.40;98.50
4635;DHT22;2330;48.158;11.816;2023-01-24T04:24:44;0.30;98.50
4635;DHT22;2330;48.158;11.816;2023-01-24T04:27:11;0.30;98.50
4635;DHT22;2330;48.158;11.816;2023-01-24T04:29:38;0.40;98.50
4635;DHT22;2330;48.158;11.816;2023-01-24T04:32:05;0.30;98.50
4635;DHT22;2330;48.158;11.816;2023-01-24T04:34:32;0.40;98.50
4635;DHT22;2330;48.158;11.816;2023-01-24T04:36:59;0.40;98.50
4635;DHT22;2330;48.158;11.816;2023-01-24T04:39:26;0.40;98.50
4635;DHT22;2330;48.158;11.816;2023-01-24T04:41:53;0.40;98.50
4635;DHT22;2330;48.158;11.816;2023-01-24T04:44:19;0.40;98.50
4635;DHT22;2330;48.158;11.816;2023-01-24T04:46:46;0.30;98.50
4635;DHT22;2330;48.158;11.816;2023-01-24T04:49:13;0.30;98.50
4635;DHT22;2330;48.158;11.816;2023-01-24T04:51:39;0.30;98.50
4635;DHT22;2330;48.158;11.816;2023-01-24T04:54:10;0.30;98.50
4635;DHT22;2330;48.158;11.816;2023-01-24T04:56:37;0.30;98.50
4635;DHT22;2330;48.158;11.816;2023-01-24T04:59:04;0.30;98.50
4635;DHT22;2330;48.158;11.816;2023-01-24T05:01:32;0.30;98.50
4635;DHT22;2330;48.158;11.816;2023-01-24T05:03:58;0.30;98.50
4635;DHT22;2330;48.158;11.816;2023-01-24T05:06:27;0.30;98.50
4635;DHT22;2330;48.158;11.816;2023-01-24T05:08:55;0.30;98.50
4635;DHT22;2330;48.158;11.816;2023-01-24T05:11:22;0.40;98.50
4635;DHT22;2330;48.158;11.816;2023-01-24T05:13:49;0.40;98.50
4635;DHT22;2330;48.158;11.816;2023-01-24T05:16:17;0.40;98.50
4635;DHT22;2330;48.158;11.816;2023-01-24T05:18:43;0.40;98.50
4635;DHT22;2330;48.158;11.816;2023-01-24T05:21:12;0.40;98.50
4635;DHT22;2330;48.158;11.816;2023-01-24T05:23:40;0.40;98.50
4635;DHT22;2330;48.158;11.816;2023-01-24T05:26:07;0.40;98.50
4635;DHT22;2330;48.158;11.816;2023-01-24T05:28:35;0.40;98.50
4635;DHT22;2330;48.158;11.816;2023-01-24T05:31:05;0.40;98.50
4635;DHT22;2330;48.158;11.816;2023-01-24T05:33:34;0.40;98.50
4635;DHT22;2330;48.158;11.816;2023-01-24T05:36:10;0.40;98.50
4635;DHT22;2330;48.158;11.816;2023-01-24T05:38:37;0.40;98.50
4635;DHT22;2330;48.158;11.816;2023-01-24T05:41:06;0.40;98.50
4635;DHT22;2330;48.158;11.816;2023-01-24T05:43:34;0.40;98.50
4635;DHT22;2330;48.158;11.816;2023-01-24T05:46:04;0.40;98.50
4635;DHT22;2330;48.158;11.816;2023-01-24T05:48:31;0.40;98.50
4635;DHT22;2330;48.158;11.816;2023-01-24T05:50:59;0.50;98.50
4635;DHT22;2330;48.158;11.816;2023-01-24T05:53:27;0.50;98.50
4635;DHT22;2330;48.158;11.816;2023-01-24T05:55:59;0.40;98.50
4635;DHT22;2330;48.158;11.816;2023-01-24T05:58:30;0.50;98.50
4635;DHT22;2330;48.158;11.816;2023-01-24T06:00:58;0.40;98.50
4635;DHT22;2330;48.158;11.816;2023-01-24T06:03:25;0.40;98.50
4635;DHT22;2330;48.158;11.816;2023-01-24T06:05:53;0.40;98.50
4635;DHT22;2330;48.158;11.816;2023-01-24T06:08:21;0.40;98.50
4635;DHT22;2330;48.158;11.816;2023-01-24T06:10:48;0.40;98.50
4635;DHT22;2330;48.158;11.816;2023-01-24T06:13:15;0.40;98.50
4635;DHT22;2330;48.158;11.816;2023-01-24T06:15:42;0.40;98.50
4635;DHT22;2330;48.158;11.816;2023-01-24T06:18:14;0.40;98.50
4635;DHT22;2330;48.158;11.816;2023-01-24T06:20:42;0.40;98.50
4635;DHT22;2330;48.158;11.816;2023-01-24T06:23:23;0.40;98.50
4635;DHT22;2330;48.158;11.816;2023-01-24T06:25:50;0.40;98.50
4635;DHT22;2330;48.158;11.816;2023-01-24T06:28:18;0.40;98.50
4635;DHT22;2330;48.158;11.816;2023-01-24T06:30:52;0.40;98.50
4635;DHT22;2330;48.158;11.816;2023-01-24T06:36:29;0.40;98.50
4635;DHT22;2330;48.158;11.816;2023-01-24T06:38:59;0.40;98.50
4635;DHT22;2330;48.158;11.816;2023-01-24T06:41:26;0.50;98.50
4635;DHT22;2330;48.158;11.816;2023-01-24T06:43:53;0.50;98.50
4635;DHT22;2330;48.158;11.816;2023-01-24T06:46:20;0.40;98.50
4635;DHT22;2330;48.158;11.816;2023-01-24T06:48:47;0.40;98.50
4635;DHT22;2330;48.158;11.816;2023-01-24T06:51:14;0.40;98.50
4635;DHT22;2330;48.158;11.816;2023-01-24T06:53:41;0.50;98.50
4635;DHT22;2330;48.158;11.816;2023-01-24T06:56:08;0.50;98.50
4635;DHT22;2330;48.158;11.816;2023-01-24T06:58:35;0.50;98.50
4635;DHT22;2330;48.158;11.816;2023-01-24T07:01:02;0.50;98.50
4635;DHT22;2330;48.158;11.816;2023-01-24T07:03:29;0.50;98.50
4635;DHT22;2330;48.158;11.816;2023-01-24T07:05:56;0.50;98.50
4635;DHT22;2330;48.158;11.816;2023-01-24T07:08:23;0.50;98.50
4635;DHT22;2330;48.158;11.816;2023-01-24T07:10:50;0.50;98.50
4635;DHT22;2330;48.158;11.816;2023-01-24T07:13:16;0.50;98.50
4635;DHT22;2330;48.158;11.816;2023-01-24T07:15:43;0.50;98.50
4635;DHT22;2330;48.158;11.816;2023-01-24T07:18:12;0.50;98.50
4635;DHT22;2330;48.158;11.816;2023-01-24T07:20:39;0.50;98.50
4635;DHT22;2330;48.158;11.816;2023-01-24T07:23:16;0.50;98.50
4635;DHT22;2330;48.158;11.816;2023-01-24T07:25:46;0.50;98.50
4635;DHT22;2330;48.158;11.816;2023-01-24T07:28:13;0.50;98.50
4635;DHT22;2330;48.158;11.816;2023-01-24T07:30:40;0.50;98.50
4635;DHT22;2330;48.158;11.816;2023-01-24T07:33:07;0.50;98.50
4635;DHT22;2330;48.158;11.816;2023-01-24T07:35:33;0.50;98.50
4635;DHT22;2330;48.158;11.816;2023-01-24T07:38:00;0.50;98.50
4635;DHT22;2330;48.158;11.816;2023-01-24T07:40:27;0.60;98.50
4635;DHT22;2330;48.158;11.816;2023-01-24T07:42:54;0.60;98.50
4635;DHT22;2330;48.158;11.816;2023-01-24T07:45:21;0.50;98.50
4635;DHT22;2330;48.158;11.816;2023-01-24T07:47:48;0.60;98.50
4635;DHT22;2330;48.158;11.816;2023-01-24T07:50:15;0.60;98.50
4635;DHT22;2330;48.158;11.816;2023-01-24T07:52:42;0.60;98.50
4635;DHT22;2330;48.158;11.816;2023-01-24T07:55:09;0.60;98.50
4635;DHT22;2330;48.158;11.816;2023-01-24T07:57:36;0.60;98.50
4635;DHT22;2330;48.158;11.816;2023-01-24T08:00:03;0.70;98.50
4635;DHT22;2330;48.158;11.816;2023-01-24T08:02:30;0.70;98.50
4635;DHT22;2330;48.158;11.816;2023-01-24T08:04:57;0.70;98.50
4635;DHT22;2330;48.158;11.816;2023-01-24T08:07:24;0.70;98.50
4635;DHT22;2330;48.158;11.816;2023-01-24T08:09:50;0.70;98.50
4635;DHT22;2330;48.158;11.816;2023-01-24T08:12:20;0.70;98.50
4635;DHT22;2330;48.158;11.816;2023-01-24T08:14:46;0.70;98.50
4635;DHT22;2330;48.158;11.816;2023-01-24T08:17:13;0.70;98.50
4635;DHT22;2330;48.158;11.816;2023-01-24T08:19:40;0.70;98.50
4635;DHT22;2330;48.158;11.816;2023-01-24T08:22:27;0.80;98.50
4635;DHT22;2330;48.158;11.816;2023-01-24T08:24:53;0.80;98.50
4635;DHT22;2330;48.158;11.816;2023-01-24T08:27:20;0.80;98.50
4635;DHT22;2330;48.158;11.816;2023-01-24T08:29:47;0.80;98.50
4635;DHT22;2330;48.158;11.816;2023-01-24T08:32:14;0.80;98.50
4635;DHT22;2330;48.158;11.816;2023-01-24T08:34:41;0.80;98.50
4635;DHT22;2330;48.158;11.816;2023-01-24T08:37:08;0.90;98.50
4635;DHT22;2330;48.158;11.816;2023-01-24T08:39:35;0.90;98.50
4635;DHT22;2330;48.158;11.816;2023-01-24T08:42:01;0.90;98.50
4635;DHT22;2330;48.158;11.816;2023-01-24T08:44:28;0.90;98.50
4635;DHT22;2330;48.158;11.816;2023-01-24T08:46:55;0.90;98.50
4635;DHT22;2330;48.158;11.816;2023-01-24T08:49:22;0.90;98.50
4635;DHT22;2330;48.158;11.816;2023-01-24T08:51:49;0.90;98.50
4635;DHT22;2330;48.158;11.816;2023-01-24T08:54:18;0.90;98.50
4635;DHT22;2330;48.158;11.816;2023-01-24T08:56:45;0.90;98.50
4635;DHT22;2330;48.158;11.816;2023-01-24T08:59:12;1.00;98.50
4635;DHT22;2330;48.158;11.816;2023-01-24T09:01:39;1.00;98.50
4635;DHT22;2330;48.158;11.816;2023-01-24T09:04:08;1.00;98.50
4635;DHT22;2330;48.158;11.816;2023-01-24T09:06:35;1.10;98.50
4635;DHT22;2330;48.158;11.816;2023-01-24T09:09:02;1.10;98.50
4635;DHT22;2330;48.158;11.816;2023-01-24T09:11:31;1.10;98.50
4635;DHT22;2330;48.158;11.816;2023-01-24T09:13:59;1.10;98.50
4635;DHT22;2330;48.158;11.816;2023-01-24T09:16:26;1.10;98.50
4635;DHT22;2330;48.158;11.816;2023-01-24T09:18:54;1.10;98.50
4635;DHT22;2330;48.158;11.816;2023-01-24T09:21:21;1.10;98.50
4635;DHT22;2330;48.158;11.816;2023-01-24T09:23:48;1.10;98.50
4635;DHT22;2330;48.158;11.816;2023-01-24T09:26:15;1.10;98.50
4635;DHT22;2330;48.158;11.816;2023-01-24T09:28:41;1.10;98.50
4635;DHT22;2330;48.158;11.816;2023-01-24T09:31:09;1.10;98.50
4635;DHT22;2330;48.158;11.816;2023-01-24T09:33:37;1.20;98.50
4635;DHT22;2330;48.158;11.816;2023-01-24T09:36:15;1.20;98.50
4635;DHT22;2330;48.158;11.816;2023-01-24T09:38:42;1.20;98.50
4635;DHT22;2330;48.158;11.816;2023-01-24T09:41:59;1.20;98.50
4635;DHT22;2330;48.158;11.816;2023-01-24T09:44:49;1.20;98.50
4635;DHT22;2330;48.158;11.816;2023-01-24T09:47:23;1.20;98.50
4635;DHT22;2330;48.158;11.816;2023-01-24T09:49:57;1.30;98.50
4635;DHT22;2330;48.158;11.816;2023-01-24T09:52:31;1.30;98.50
4635;DHT22;2330;48.158;11.816;2023-01-24T09:55:09;1.30;98.50
4635;DHT22;2330;48.158;11.816;2023-01-24T10:00:35;1.30;98.50
4635;DHT22;2330;48.158;11.816;2023-01-24T10:03:14;1.40;98.50
4635;DHT22;2330;48.158;11.816;2023-01-24T10:05:51;1.30;98.50
4635;DHT22;2330;48.158;11.816;2023-01-24T10:11:39;1.30;98.50
4635;DHT22;2330;48.158;11.816;2023-01-24T10:27:46;1.50;98.50
4635;DHT22;2330;48.158;11.816;2023-01-24T10:30:26;1.40;98.50
4635;DHT22;2330;48.158;11.816;2023-01-24T10:32:59;1.50;98.50
4635;DHT22;2330;48.158;11.816;2023-01-24T10:36:10;1.50;98.50
4635;DHT22;2330;48.158;11.816;2023-01-24T10:38:36;1.50;98.50
4635;DHT22;2330;48.158;11.816;2023-01-24T10:43:50;1.50;98.50
4635;DHT22;2330;48.158;11.816;2023-01-24T10:46:46;1.50;98.50
4635;DHT22;2330;48.158;11.816;2023-01-24T10:49:30;1.50;98.50
4635;DHT22;2330;48.158;11.816;2023-01-24T10:52:13;1.50;98.50
4635;DHT22;2330;48.158;11.816;2023-01-24T10:54:46;1.50;98.50
4635;DHT22;2330;48.158;11.816;2023-01-24T10:57:19;1.50;98.50
4635;DHT22;2330;48.158;11.816;2023-01-24T10:59:46;1.60;98.50
4635;DHT22;2330;48.158;11.816;2023-01-24T11:02:20;1.60;98.50
4635;DHT22;2330;48.158;11.816;2023-01-24T11:04:55;1.50;98.50
4635;DHT22;2330;48.158;11.816;2023-01-24T11:07:51;1.40;98.50
4635;DHT22;2330;48.158;11.816;2023-01-24T11:10:30;1.40;98.50
4635;DHT22;2330;48.158;11.816;2023-01-24T11:12:58;1.30;98.50
4635;DHT22;2330;48.158;11.816;2023-01-24T11:15:29;1.30;98.50
4635;DHT22;2330;48.158;11.816;2023-01-24T11:18:13;1.30;98.50
4635;DHT22;2330;48.158;11.816;2023-01-24T11:20:43;1.30;98.50
4635;DHT22;2330;48.158;11.816;2023-01-24T11:23:20;1.40;98.50
4635;DHT22;2330;48.158;11.816;2023-01-24T11:26:01;1.40;98.50
4635;DHT22;2330;48.158;11.816;2023-01-24T11:28:31;1.40;98.50
4635;DHT22;2330;48.158;11.816;2023-01-24T11:31:40;1.40;98.50
4635;DHT22;2330;48.158;11.816;2023-01-24T11:42:55;1.50;98.50
4635;DHT22;2330;48.158;11.816;2023-01-24T11:46:13;1.50;98.50
4635;DHT22;2330;48.158;11.816;2023-01-24T11:56:52;1.60;98.50
4635;DHT22;2330;48.158;11.816;2023-01-24T12:05:26;1.70;98.50
4635;DHT22;2330;48.158;11.816;2023-01-24T12:16:18;1.70;98.50
4635;DHT22;2330;48.158;11.816;2023-01-24T12:19:22;1.70;98.50
4635;DHT22;2330;48.158;11.816;2023-01-24T12:21:59;1.70;98.50
4635;DHT22;2330;48.158;11.816;2023-01-24T12:24:33;1.70;98.50
4635;DHT22;2330;48.158;11.816;2023-01-24T12:27:05;1.70;98.50
4635;DHT22;2330;48.158;11.816;2023-01-24T12:29:57;1.70;98.50
4635;DHT22;2330;48.158;11.816;2023-01-24T12:32:36;1.70;98.50
4635;DHT22;2330;48.158;11.816;2023-01-24T12:35:22;1.70;98.50
4635;DHT22;2330;48.158;11.816;2023-01-24T12:38:00;1.70;98.50
4635;DHT22;2330;48.158;11.816;2023-01-24T12:40:55;1.70;98.50
4635;DHT22;2330;48.158;11.816;2023-01-24T12:46:37;1.90;98.50
4635;DHT22;2330;48.158;11.816;2023-01-24T12:51:51;1.80;98.50
4635;DHT22;2330;48.158;11.816;2023-01-24T12:54:25;1.80;98.50
4635;DHT22;2330;48.158;11.816;2023-01-24T12:57:04;1.80;98.50
4635;DHT22;2330;48.158;11.816;2023-01-24T12:59:35;1.80;98.50
4635;DHT22;2330;48.158;11.816;2023-01-24T13:11:20;1.90;98.50
4635;DHT22;2330;48.158;11.816;2023-01-24T13:27:46;1.80;98.50
4635;DHT22;2330;48.158;11.816;2023-01-24T13:30:26;1.80;98.50
4635;DHT22;2330;48.158;11.816;2023-01-24T13:32:53;1.80;98.50
4635;DHT22;2330;48.158;11.816;2023-01-24T13:35:24;1.90;98.50
4635;DHT22;2330;48.158;11.816;2023-01-24T13:38:04;1.90;98.50
4635;DHT22;2330;48.158;11.816;2023-01-24T13:40:32;1.80;98.50
4635;DHT22;2330;48.158;11.816;2023-01-24T13:43:54;1.80;98.50
4635;DHT22;2330;48.158;11.816;2023-01-24T13:45:51;1.80;98.50
4635;DHT22;2330;48.158;11.816;2023-01-24T13:51:32;1.70;98.50
4635;DHT22;2330;48.158;11.816;2023-01-24T13:54:02;1.70;98.50
4635;DHT22;2330;48.158;11.816;2023-01-24T13:56:29;1.70;98.50
4635;DHT22;2330;48.158;11.816;2023-01-24T13:58:57;1.70;98.50
4635;DHT22;2330;48.158;11.816;2023-01-24T14:01:25;1.70;98.50
4635;DHT22;2330;48.158;11.816;2023-01-24T14:04:01;1.70;98.50
4635;DHT22;2330;48.158;11.816;2023-01-24T14:06:43;1.70;98.50
4635;DHT22;2330;48.158;11.816;2023-01-24T14:09:19;1.70;98.50
4635;DHT22;2330;48.158;11.816;2023-01-24T14:12:04;1.60;98.50
4635;DHT22;2330;48.158;11.816;2023-01-24T14:14:36;1.60;98.50
4635;DHT22;2330;48.158;11.816;2023-01-24T14:17:27;1.60;98.50
4635;DHT22;2330;48.158;11.816;2023-01-24T14:19:56;1.60;98.50
4635;DHT22;2330;48.158;11.816;2023-01-24T14:22:33;1.60;98.50
4635;DHT22;2330;48.158;11.816;2023-01-24T14:25:27;1.60;98.50
4635;DHT22;2330;48.158;11.816;2023-01-24T14:28:15;1.60;98.50
4635;DHT22;2330;48.158;11.816;2023-01-24T14:30:50;1.60;98.50
4635;DHT22;2330;48.158;11.816;2023-01-24T14:33:42;1.60;98.50
4635;DHT22;2330;48.158;11.816;2023-01-24T14:36:32;1.60;98.50
4635;DHT22;2330;48.158;11.816;2023-01-24T14:39:18;1.50;98.50
4635;DHT22;2330;48.158;11.816;2023-01-24T14:44:26;1.50;98.50
4635;DHT22;2330;48.158;11.816;2023-01-24T14:46:57;1.40;98.50
4635;DHT22;2330;48.158;11.816;2023-01-24T14:49:47;1.40;98.50
4635;DHT22;2330;48.158;11.816;2023-01-24T14:52:41;1.40;98.50
4635;DHT22;2330;48.158;11.816;2023-01-24T14:57:43;1.40;98.50
4635;DHT22;2330;48.158;11.816;2023-01-24T15:02:52;1.30;98.50
4635;DHT22;2330;48.158;11.816;2023-01-24T15:05:24;1.30;98.50
4635;DHT22;2330;48.158;11.816;2023-01-24T15:07:51;1.30;98.50
4635;DHT22;2330;48.158;11.816;2023-01-24T15:10:26;1.30;98.50
4635;DHT22;2330;48.158;11.816;2023-01-24T15:12:56;1.30;98.50
4635;DHT22;2330;48.158;11.816;2023-01-24T15:15:24;1.30;98.50
4635;DHT22;2330;48.158;11.816;2023-01-24T15:17:59;1.30;98.50
4635;DHT22;2330;48.158;11.816;2023-01-24T15:20:26;1.30;98.50
4635;DHT22;2330;48.158;11.816;2023-01-24T15:22:57;1.30;98.50
4635;DHT22;2330;48.158;11.816;2023-01-24T15:25:33;1.30;98.50
4635;DHT22;2330;48.158;11.816;2023-01-24T15:30:35;1.30;98.50
4635;DHT22;2330;48.158;11.816;2023-01-24T15:33:10;1.20;98.50
4635;DHT22;2330;48.158;11.816;2023-01-24T15:35:48;1.20;98.50
4635;DHT22;2330;48.158;11.816;2023-01-24T15:38:26;1.20;98.50
4635;DHT22;2330;48.158;11.816;2023-01-24T15:43:32;1.20;98.50
4635;DHT22;2330;48.158;11.816;2023-01-24T15:46:28;1.20;98.50
4635;DHT22;2330;48.158;11.816;2023-01-24T15:49:18;1.20;98.50
4635;DHT22;2330;48.158;11.816;2023-01-24T15:54:53;1.20;98.50
4635;DHT22;2330;48.158;11.816;2023-01-24T15:57:30;1.20;98.50
4635;DHT22;2330;48.158;11.816;2023-01-24T16:02:39;1.20;98.50
4635;DHT22;2330;48.158;11.816;2023-01-24T16:05:17;1.20;98.50
4635;DHT22;2330;48.158;11.816;2023-01-24T16:07:45;1.20;98.50
4635;DHT22;2330;48.158;11.816;2023-01-24T16:10:16;1.20;98.50
4635;DHT22;2330;48.158;11.816;2023-01-24T16:12:45;1.20;98.50
4635;DHT22;2330;48.158;11.816;2023-01-24T16:15:18;1.20;98.50
4635;DHT22;2330;48.158;11.816;2023-01-24T16:17:45;1.20;98.50
4635;DHT22;2330;48.158;11.816;2023-01-24T16:20:24;1.20;98.50
4635;DHT22;2330;48.158;11.816;2023-01-24T16:22:51;1.20;98.50
4635;DHT22;2330;48.158;11.816;2023-01-24T16:25:18;1.20;98.50
4635;DHT22;2330;48.158;11.816;2023-01-24T16:27:47;1.20;98.50
4635;DHT22;2330;48.158;11.816;2023-01-24T16:30:24;1.20;98.50
4635;DHT22;2330;48.158;11.816;2023-01-24T16:32:52;1.20;98.50
4635;DHT22;2330;48.158;11.816;2023-01-24T16:35:20;1.20;98.50
4635;DHT22;2330;48.158;11.816;2023-01-24T16:37:47;1.20;98.50
4635;DHT22;2330;48.158;11.816;2023-01-24T16:40:16;1.20;98.50
4635;DHT22;2330;48.158;11.816;2023-01-24T16:42:45;1.20;98.50
4635;DHT22;2330;48.158;11.816;2023-01-24T16:45:14;1.20;98.50
4635;DHT22;2330;48.158;11.816;2023-01-24T16:47:42;1.20;98.50
4635;DHT22;2330;48.158;11.816;2023-01-24T16:50:10;1.20;98.50
4635;DHT22;2330;48.158;11.816;2023-01-24T16:52:38;1.20;98.50
4635;DHT22;2330;48.158;11.816;2023-01-24T16:55:06;1.20;98.50
4635;DHT22;2330;48.158;11.816;2023-01-24T16:57:33;1.20;98.50
4635;DHT22;2330;48.158;11.816;2023-01-24T17:00:00;1.20;98.50
4635;DHT22;2330;48.158;11.816;2023-01-24T17:02:28;1.20;98.50
4635;DHT22;2330;48.158;11.816;2023-01-24T17:04:55;1.20;98.50
4635;DHT22;2330;48.158;11.816;2023-01-24T17:07:21;1.20;98.50
4635;DHT22;2330;48.158;11.816;2023-01-24T17:09:48;1.20;98.50
4635;DHT22;2330;48.158;11.816;2023-01-24T17:12:15;1.20;98.50
4635;DHT22;2330;48.158;11.816;2023-01-24T17:14:42;1.10;98.50
4635;DHT22;2330;48.158;11.816;2023-01-24T17:17:09;1.10;98.50
4635;DHT22;2330;48.158;11.816;2023-01-24T17:19:37;1.10;98.50
4635;DHT22;2330;48.158;11.816;2023-01-24T17:22:04;1.10;98.50
4635;DHT22;2330;48.158;11.816;2023-01-24T17:24:32;1.10;98.50
4635;DHT22;2330;48.158;11.816;2023-01-24T17:26:58;1.10;98.50
4635;DHT22;2330;48.158;11.816;2023-01-24T17:29:26;1.10;98.50
4635;DHT22;2330;48.158;11.816;2023-01-24T17:31:55;1.10;98.50
4635;DHT22;2330;48.158;11.816;2023-01-24T17:34:23;1.10;98.50
4635;DHT22;2330;48.158;11.816;2023-01-24T17:36:50;1.10;98.50
4635;DHT22;2330;48.158;11.816;2023-01-24T17:39:17;1.10;98.50
4635;DHT22;2330;48.158;11.816;2023-01-24T17:41:44;1.10;98.50
4635;DHT22;2330;48.158;11.816;2023-01-24T17:44:11;1.10;98.50
4635;DHT22;2330;48.158;11.816;2023-01-24T17:46:38;1.20;98.50
4635;DHT22;2330;48.158;11.816;2023-01-24T17:49:05;1.20;98.50
4635;DHT22;2330;48.158;11.816;2023-01-24T17:51:32;1.20;98.50
4635;DHT22;2330;48.158;11.816;2023-01-24T17:54:03;1.10;98.50
4635;DHT22;2330;48.158;11.816;2023-01-24T17:56:30;1.10;98.50
4635;DHT22;2330;48.158;11.816;2023-01-24T17:58:58;1.10;98.50
4635;DHT22;2330;48.158;11.816;2023-01-24T18:01:26;1.10;98.50
4635;DHT22;2330;48.158;11.816;2023-01-24T18:03:53;1.10;98.50
4635;DHT22;2330;48.158;11.816;2023-01-24T18:06:20;1.10;98.50
4635;DHT22;2330;48.158;11.816;2023-01-24T18:08:47;1.10;98.50
4635;DHT22;2330;48.158;11.816;2023-01-24T18:11:16;1.10;98.50
4635;DHT22;2330;48.158;11.816;2023-01-24T18:13:44;1.10;98.50
4635;DHT22;2330;48.158;11.816;2023-01-24T18:16:13;1.10;98.50
4635;DHT22;2330;48.158;11.816;2023-01-24T18:18:40;1.10;98.50
4635;DHT22;2330;48.158;11.816;2023-01-24T18:21:18;1.10;98.50
4635;DHT22;2330;48.158;11.816;2023-01-24T18:23:50;1.10;98.50
4635;DHT22;2330;48.158;11.816;2023-01-24T18:26:18;1.00;98.50
4635;DHT22;2330;48.158;11.816;2023-01-24T18:28:45;1.00;98.50